createdAt,value
2016-12-03T00:01:01.407Z,20.76
2016-12-03T00:02:11.734Z,20.72
2016-12-03T00:03:22.063Z,20.83
2016-12-03T00:04:32.396Z,20.79
2016-12-03T00:05:42.749Z,20.85
2016-12-03T00:06:53.302Z,20.9
2016-12-03T00:08:03.621Z,20.87
2016-12-03T00:09:13.943Z,20.9
2016-12-03T00:10:24.290Z,20.88
2016-12-03T00:11:34.609Z,20.93
2016-12-03T00:12:44.922Z,20.96
2016-12-03T00:13:55.246Z,21.05
2016-12-03T00:15:05.588Z,20.97
2016-12-03T00:16:15.980Z,21.01
2016-12-03T00:17:26.299Z,20.97
2016-12-03T00:18:36.845Z,20.94
2016-12-03T00:19:47.184Z,20.96
2016-12-03T00:21:12.146Z,20.93
2016-12-03T00:23:47.557Z,21.01
2016-12-03T00:24:58.071Z,21.05
2016-12-03T00:26:08.626Z,21.12
2016-12-03T00:27:19.177Z,21.06
2016-12-03T00:28:30.245Z,21.12
2016-12-03T00:29:41.015Z,21.06
2016-12-03T00:30:51.569Z,21.06
2016-12-03T00:32:02.128Z,21.08
2016-12-03T00:33:13.171Z,21.08
2016-12-03T00:34:38.248Z,21.05
2016-12-03T00:35:49.004Z,20.97
2016-12-03T00:36:59.599Z,21.05
2016-12-03T00:39:35.246Z,21.01
2016-12-03T00:40:45.989Z,21.05
2016-12-03T00:41:56.541Z,21.01
2016-12-03T00:43:07.119Z,20.98
2016-12-03T00:44:32.203Z,20.94
2016-12-03T00:45:57.523Z,20.91
2016-12-03T00:47:08.078Z,20.79
2016-12-03T00:48:18.652Z,20.9
2016-12-03T00:49:29.228Z,20.87
2016-12-03T00:50:39.796Z,20.9
2016-12-03T00:51:50.364Z,20.93
2016-12-03T00:53:00.924Z,20.94
2016-12-03T00:54:11.469Z,20.93
2016-12-03T00:55:22.019Z,20.93
2016-12-03T00:56:32.569Z,20.93
2016-12-03T00:57:43.331Z,20.96
2016-12-03T00:58:53.879Z,20.87
2016-12-03T01:00:04.429Z,20.88
2016-12-03T01:01:14.999Z,20.88
2016-12-03T01:02:25.766Z,20.85
2016-12-03T01:03:36.517Z,20.87
2016-12-03T01:04:47.071Z,20.82
2016-12-03T01:07:22.696Z,20.88
2016-12-03T01:08:33.441Z,20.85
2016-12-03T01:09:43.989Z,20.87
2016-12-03T01:10:54.540Z,20.87
2016-12-03T01:12:05.098Z,20.88
2016-12-03T01:13:15.664Z,20.88
2016-12-03T01:14:26.445Z,20.88
2016-12-03T01:15:36.985Z,20.85
2016-12-03T01:17:02.077Z,20.87
2016-12-03T01:18:12.641Z,20.79
2016-12-03T01:19:23.195Z,20.82
2016-12-03T01:20:33.768Z,20.76
2016-12-03T01:21:44.310Z,20.81
2016-12-03T01:22:54.869Z,20.81
2016-12-03T01:24:05.426Z,20.83
2016-12-03T01:25:15.976Z,20.78
2016-12-03T01:26:26.517Z,20.83
2016-12-03T01:27:37.082Z,20.87
2016-12-03T01:28:47.632Z,20.91
2016-12-03T01:29:58.180Z,20.91
2016-12-03T01:31:09.432Z,20.88
2016-12-03T01:32:19.978Z,20.85
2016-12-03T01:33:30.529Z,20.88
2016-12-03T01:34:41.073Z,20.87
2016-12-03T01:35:51.619Z,20.82
2016-12-03T01:37:02.377Z,20.87
2016-12-03T01:38:12.948Z,20.9
2016-12-03T01:39:23.497Z,20.87
2016-12-03T01:40:34.049Z,20.9
2016-12-03T01:41:44.628Z,20.9
2016-12-03T01:42:55.391Z,20.88
2016-12-03T01:44:05.943Z,20.82
2016-12-03T01:45:16.493Z,20.82
2016-12-03T01:46:27.039Z,20.78
2016-12-03T01:47:37.593Z,20.73
2016-12-03T01:48:48.336Z,20.73
2016-12-03T01:49:58.875Z,20.78
2016-12-03T01:51:09.350Z,20.76
2016-12-03T01:52:20.310Z,20.75
2016-12-03T01:53:30.807Z,20.79
2016-12-03T01:54:41.472Z,20.78
2016-12-03T01:55:51.929Z,20.78
2016-12-03T01:57:02.396Z,20.83
2016-12-03T01:58:13.363Z,20.81
2016-12-03T01:59:23.844Z,20.83
2016-12-03T02:00:34.510Z,20.82
2016-12-03T02:01:45.003Z,20.82
2016-12-03T02:02:55.478Z,20.87
2016-12-03T02:04:06.142Z,20.82
2016-12-03T02:05:16.598Z,20.82
2016-12-03T02:06:27.073Z,20.88
2016-12-03T02:07:37.554Z,20.85
2016-12-03T02:08:48.002Z,20.87
2016-12-03T02:09:58.416Z,20.9
2016-12-03T02:11:08.780Z,20.88
2016-12-03T02:12:19.149Z,20.94
2016-12-03T02:13:29.966Z,20.96
2016-12-03T02:14:40.317Z,20.82
2016-12-03T02:15:50.669Z,20.88
2016-12-03T02:17:15.586Z,20.83
2016-12-03T02:18:25.937Z,20.83
2016-12-03T02:19:36.293Z,20.88
2016-12-03T02:20:46.632Z,20.88
2016-12-03T02:21:57.004Z,20.81
2016-12-03T02:23:07.404Z,20.75
2016-12-03T02:24:17.743Z,20.83
2016-12-03T02:25:28.093Z,20.83
2016-12-03T02:26:38.440Z,20.76
2016-12-03T02:27:48.795Z,20.82
2016-12-03T02:28:59.628Z,20.82
2016-12-03T02:30:09.988Z,20.83
2016-12-03T02:31:20.349Z,20.78
2016-12-03T02:32:45.255Z,20.76
2016-12-03T02:33:55.589Z,20.81
2016-12-03T02:35:05.918Z,20.73
2016-12-03T02:36:16.274Z,20.78
2016-12-03T02:37:26.629Z,20.69
2016-12-03T02:38:36.976Z,20.69
2016-12-03T02:39:47.519Z,20.72
2016-12-03T02:40:58.372Z,20.66
2016-12-03T02:42:08.724Z,20.66
2016-12-03T02:43:19.130Z,20.6
2016-12-03T02:44:29.630Z,20.56
2016-12-03T02:45:40.115Z,20.54
2016-12-03T02:46:50.585Z,20.61
2016-12-03T02:48:01.053Z,20.51
2016-12-03T02:49:11.515Z,20.64
2016-12-03T02:50:22.022Z,20.58
2016-12-03T02:51:32.484Z,20.57
2016-12-03T02:52:42.956Z,20.6
2016-12-03T02:54:07.967Z,20.58
2016-12-03T02:55:18.440Z,20.56
2016-12-03T02:56:28.933Z,20.54
2016-12-03T02:57:40.117Z,20.58
2016-12-03T02:58:50.568Z,20.53
2016-12-03T03:00:01.022Z,20.64
2016-12-03T03:01:26.036Z,20.64
2016-12-03T03:02:36.503Z,20.68
2016-12-03T03:03:46.990Z,20.66
2016-12-03T03:04:57.465Z,20.69
2016-12-03T03:06:07.927Z,20.6
2016-12-03T03:07:18.380Z,20.58
2016-12-03T03:08:28.874Z,20.46
2016-12-03T03:09:39.311Z,20.57
2016-12-03T03:10:49.770Z,20.56
2016-12-03T03:12:00.232Z,20.6
2016-12-03T03:13:11.218Z,20.56
2016-12-03T03:14:21.717Z,20.56
2016-12-03T03:15:32.190Z,20.48
2016-12-03T03:16:42.668Z,20.56
2016-12-03T03:18:07.868Z,20.56
2016-12-03T03:19:18.335Z,20.5
2016-12-03T03:20:28.801Z,20.46
2016-12-03T03:21:39.279Z,20.57
2016-12-03T03:22:49.754Z,20.57
2016-12-03T03:25:25.200Z,20.58
2016-12-03T03:26:35.683Z,20.56
2016-12-03T03:27:46.147Z,20.6
2016-12-03T03:28:56.628Z,20.57
2016-12-03T03:30:07.109Z,20.66
2016-12-03T03:31:32.103Z,20.66
2016-12-03T03:32:42.561Z,20.64
2016-12-03T03:33:53.510Z,20.51
2016-12-03T03:35:03.966Z,20.64
2016-12-03T03:36:14.910Z,20.66
2016-12-03T03:37:25.360Z,20.69
2016-12-03T03:38:35.824Z,20.76
2016-12-03T03:39:46.287Z,20.72
2016-12-03T03:40:56.738Z,20.78
2016-12-03T03:42:07.203Z,20.69
2016-12-03T03:43:32.218Z,20.83
2016-12-03T03:44:57.206Z,20.81
2016-12-03T03:46:07.683Z,20.82
2016-12-03T03:47:18.148Z,20.85
2016-12-03T03:48:28.613Z,20.83
2016-12-03T03:49:39.124Z,20.88
2016-12-03T03:51:04.365Z,20.87
2016-12-03T03:52:14.811Z,20.88
2016-12-03T03:53:25.272Z,20.87
2016-12-03T03:54:35.759Z,20.9
2016-12-03T03:55:46.433Z,20.96
2016-12-03T03:57:11.443Z,20.94
2016-12-03T03:58:21.908Z,20.96
2016-12-03T03:59:32.374Z,21
2016-12-03T04:00:43.054Z,20.98
2016-12-03T04:01:53.541Z,20.94
2016-12-03T04:03:04.002Z,20.9
2016-12-03T04:04:29.026Z,20.91
2016-12-03T04:05:39.553Z,20.88
2016-12-03T04:06:50.128Z,20.91
2016-12-03T04:08:00.654Z,20.93
2016-12-03T04:09:11.207Z,20.97
2016-12-03T04:10:21.748Z,20.93
2016-12-03T04:11:32.533Z,20.88
2016-12-03T04:12:43.082Z,20.94
2016-12-03T04:13:53.619Z,20.85
2016-12-03T04:15:04.176Z,20.88
2016-12-03T04:16:14.730Z,20.85
2016-12-03T04:17:25.281Z,20.93
2016-12-03T04:18:35.813Z,20.87
2016-12-03T04:19:46.344Z,20.96
2016-12-03T04:20:56.872Z,20.9
2016-12-03T04:22:07.417Z,20.94
2016-12-03T04:23:17.948Z,20.88
2016-12-03T04:24:28.490Z,20.85
2016-12-03T04:25:39.014Z,20.88
2016-12-03T04:26:49.561Z,20.93
2016-12-03T04:28:00.094Z,20.85
2016-12-03T04:29:11.321Z,20.81
2016-12-03T04:30:22.385Z,20.79
2016-12-03T04:31:32.917Z,20.83
2016-12-03T04:32:43.454Z,20.83
2016-12-03T04:33:53.986Z,20.81
2016-12-03T04:35:04.724Z,20.91
2016-12-03T04:36:15.249Z,20.91
2016-12-03T04:37:25.775Z,20.96
2016-12-03T04:38:36.317Z,20.94
2016-12-03T04:39:46.850Z,20.96
2016-12-03T04:40:57.577Z,20.98
2016-12-03T04:42:22.634Z,21.01
2016-12-03T04:43:33.157Z,21.03
2016-12-03T04:44:43.719Z,21.03
2016-12-03T04:45:54.246Z,20.98
2016-12-03T04:47:04.771Z,21.01
2016-12-03T04:48:15.320Z,21.11
2016-12-03T04:49:25.848Z,21
2016-12-03T04:50:36.317Z,21.01
2016-12-03T04:51:46.947Z,21.05
2016-12-03T04:52:57.387Z,21.06
2016-12-03T04:54:07.844Z,21.06
2016-12-03T04:55:18.279Z,21.05
2016-12-03T04:56:28.712Z,21.08
2016-12-03T04:57:39.344Z,21.09
2016-12-03T05:00:14.752Z,21.06
2016-12-03T05:01:25.180Z,21.06
2016-12-03T05:02:35.626Z,21.06
2016-12-03T05:03:46.054Z,21.11
2016-12-03T05:04:56.973Z,21.11
2016-12-03T05:06:07.404Z,21.06
2016-12-03T05:07:17.841Z,21.03
2016-12-03T05:08:28.481Z,20.97
2016-12-03T05:09:38.911Z,21.05
2016-12-03T05:10:49.344Z,21.05
2016-12-03T05:12:14.320Z,21
2016-12-03T05:13:24.956Z,21.08
2016-12-03T05:14:35.387Z,21.12
2016-12-03T05:15:45.818Z,21.03
2016-12-03T05:16:56.249Z,21.06
2016-12-03T05:18:06.687Z,21.09
2016-12-03T05:19:17.805Z,21.06
2016-12-03T05:20:28.235Z,21.11
2016-12-03T05:21:38.673Z,21.13
2016-12-03T05:22:49.111Z,21.09
2016-12-03T05:23:59.539Z,21.09
2016-12-03T05:25:09.972Z,21.18
2016-12-03T05:26:20.400Z,21.16
2016-12-03T05:27:30.840Z,21.15
2016-12-03T05:28:55.817Z,21.15
2016-12-03T05:30:06.251Z,21.13
2016-12-03T05:31:16.687Z,21.15
2016-12-03T05:32:27.121Z,21.09
2016-12-03T05:33:37.553Z,21.15
2016-12-03T05:34:48.003Z,21.11
2016-12-03T05:35:58.728Z,21.09
2016-12-03T05:37:09.252Z,21.08
2016-12-03T05:38:19.779Z,21.06
2016-12-03T05:39:30.339Z,21.05
2016-12-03T05:40:40.869Z,21.08
2016-12-03T05:41:51.392Z,21.01
2016-12-03T05:43:01.919Z,21.05
2016-12-03T05:44:12.442Z,21.12
2016-12-03T05:45:22.969Z,21.09
2016-12-03T05:46:33.492Z,21.08
2016-12-03T05:47:44.014Z,21.06
2016-12-03T05:48:54.537Z,21.09
2016-12-03T05:50:05.065Z,21.05
2016-12-03T05:51:15.588Z,21.15
2016-12-03T05:52:26.110Z,21.01
2016-12-03T05:53:36.836Z,21.11
2016-12-03T05:54:47.360Z,21.05
2016-12-03T05:55:57.882Z,21.08
2016-12-03T05:57:08.412Z,21.09
2016-12-03T05:58:18.954Z,21.19
2016-12-03T05:59:29.675Z,21.15
2016-12-03T06:00:40.202Z,21.21
2016-12-03T06:01:50.724Z,21.06
2016-12-03T06:04:26.500Z,21.06
2016-12-03T06:05:37.026Z,21.06
2016-12-03T06:06:47.553Z,21.09
2016-12-03T06:07:58.077Z,21.11
2016-12-03T06:09:08.603Z,21.16
2016-12-03T06:10:19.329Z,21.22
2016-12-03T06:11:29.854Z,21.16
2016-12-03T06:12:40.376Z,21.16
2016-12-03T06:13:50.901Z,21.27
2016-12-03T06:15:01.422Z,21.21
2016-12-03T06:16:26.675Z,21.18
2016-12-03T06:17:37.202Z,21.15
2016-12-03T06:18:47.725Z,21.13
2016-12-03T06:20:12.780Z,21.09
2016-12-03T06:21:23.306Z,21.08
2016-12-03T06:22:33.834Z,21.11
2016-12-03T06:23:44.363Z,21.28
2016-12-03T06:24:54.889Z,21.09
2016-12-03T06:26:05.445Z,21.08
2016-12-03T06:27:15.972Z,21.15
2016-12-03T06:28:26.524Z,21.18
2016-12-03T06:29:37.056Z,21.15
2016-12-03T06:30:47.581Z,21.09
2016-12-03T06:33:23.385Z,21.11
2016-12-03T06:34:33.909Z,21.01
2016-12-03T06:35:44.436Z,21
2016-12-03T06:36:54.968Z,21.05
2016-12-03T06:38:05.489Z,21.11
2016-12-03T06:39:16.024Z,21.09
2016-12-03T06:40:26.551Z,21.11
2016-12-03T06:41:37.079Z,21.15
2016-12-03T06:42:47.601Z,21.22
2016-12-03T06:43:58.130Z,21.19
2016-12-03T06:45:08.654Z,21.19
2016-12-03T06:46:19.178Z,21.15
2016-12-03T06:47:29.706Z,21.19
2016-12-03T06:48:40.234Z,21.09
2016-12-03T06:49:50.767Z,21.15
2016-12-03T06:51:01.295Z,21.09
2016-12-03T06:52:11.817Z,21.11
2016-12-03T06:53:22.340Z,21.11
2016-12-03T06:54:32.866Z,21.06
2016-12-03T06:55:43.595Z,21.08
2016-12-03T06:56:54.124Z,21
2016-12-03T06:58:19.176Z,20.98
2016-12-03T06:59:29.706Z,20.94
2016-12-03T07:00:40.436Z,20.87
2016-12-03T07:01:50.962Z,20.83
2016-12-03T07:03:01.490Z,20.85
2016-12-03T07:04:12.017Z,20.79
2016-12-03T07:05:22.495Z,20.78
2016-12-03T07:06:32.934Z,20.79
2016-12-03T07:07:43.366Z,20.82
2016-12-03T07:08:53.801Z,20.88
2016-12-03T07:10:04.239Z,20.88
2016-12-03T07:11:14.669Z,20.96
2016-12-03T07:12:25.302Z,21.08
2016-12-03T07:13:35.732Z,21
2016-12-03T07:14:46.159Z,20.96
2016-12-03T07:15:56.592Z,20.91
2016-12-03T07:17:07.023Z,20.91
2016-12-03T07:18:17.657Z,20.91
2016-12-03T07:19:28.089Z,20.97
2016-12-03T07:20:38.518Z,21.08
2016-12-03T07:21:48.949Z,21.11
2016-12-03T07:22:59.380Z,21.11
2016-12-03T07:24:10.009Z,21.06
2016-12-03T07:25:20.440Z,21.08
2016-12-03T07:26:30.907Z,21.09
2016-12-03T07:27:41.336Z,21.26
2016-12-03T07:28:51.774Z,21.06
2016-12-03T07:30:02.204Z,21.21
2016-12-03T07:31:12.639Z,21.12
2016-12-03T07:32:23.070Z,21.08
2016-12-03T07:34:02.593Z,21.06
2016-12-03T07:35:13.224Z,21.13
2016-12-03T07:36:23.652Z,21.18
2016-12-03T07:37:34.088Z,21.08
2016-12-03T07:38:44.520Z,21.13
2016-12-03T07:39:54.954Z,21.19
2016-12-03T07:41:05.385Z,21.18
2016-12-03T07:42:15.820Z,21.15
2016-12-03T07:43:26.247Z,21.15
2016-12-03T07:44:36.681Z,21.08
2016-12-03T07:45:47.139Z,21.13
2016-12-03T07:46:57.566Z,21.08
2016-12-03T07:48:08.006Z,21.16
2016-12-03T07:49:18.439Z,21.13
2016-12-03T07:50:28.924Z,21.18
2016-12-03T07:51:53.974Z,21.26
2016-12-03T07:53:04.503Z,21.21
2016-12-03T07:54:15.529Z,21.21
2016-12-03T07:55:26.079Z,21.21
2016-12-03T07:56:36.600Z,21.27
2016-12-03T07:57:47.128Z,21.21
2016-12-03T07:58:57.649Z,21.19
2016-12-03T08:00:08.202Z,21.26
2016-12-03T08:01:18.764Z,21.24
2016-12-03T08:02:29.287Z,21.21
2016-12-03T08:03:40.013Z,21.19
2016-12-03T08:04:50.537Z,21.28
2016-12-03T08:06:15.589Z,21.19
2016-12-03T08:07:26.115Z,21.28
2016-12-03T08:08:51.163Z,21.16
2016-12-03T08:10:01.684Z,21.12
2016-12-03T08:11:12.216Z,21.08
2016-12-03T08:12:22.738Z,21.05
2016-12-03T08:13:33.274Z,20.94
2016-12-03T08:14:43.998Z,20.94
2016-12-03T08:15:54.523Z,20.93
2016-12-03T08:17:05.046Z,20.94
2016-12-03T08:18:16.069Z,20.9
2016-12-03T08:19:26.594Z,20.96
2016-12-03T08:20:37.821Z,20.93
2016-12-03T08:21:48.346Z,20.88
2016-12-03T08:22:59.380Z,20.87
2016-12-03T08:24:09.909Z,20.85
2016-12-03T08:25:20.435Z,20.93
2016-12-03T08:26:31.163Z,20.82
2016-12-03T08:27:41.690Z,20.85
2016-12-03T08:28:52.213Z,20.87
2016-12-03T08:30:02.741Z,20.82
2016-12-03T08:31:13.208Z,20.82
2016-12-03T08:32:23.616Z,20.69
2016-12-03T08:33:34.022Z,20.78
2016-12-03T08:34:44.916Z,20.85
2016-12-03T08:35:55.320Z,20.93
2016-12-03T08:37:05.730Z,20.93
2016-12-03T08:38:16.333Z,20.94
2016-12-03T08:39:26.739Z,21.01
2016-12-03T08:40:51.713Z,21
2016-12-03T08:42:02.117Z,21.01
2016-12-03T08:43:27.079Z,21.09
2016-12-03T08:44:37.485Z,21.11
2016-12-03T08:45:47.894Z,21.08
2016-12-03T08:46:58.299Z,21.03
2016-12-03T08:48:08.708Z,21
2016-12-03T08:49:19.115Z,21.08
2016-12-03T08:50:29.519Z,20.96
2016-12-03T08:51:39.927Z,21.03
2016-12-03T08:52:50.334Z,21.12
2016-12-03T08:54:00.736Z,21.06
2016-12-03T08:55:25.897Z,20.93
2016-12-03T08:56:36.303Z,20.87
2016-12-03T08:57:46.710Z,20.87
2016-12-03T08:58:57.112Z,20.88
2016-12-03T09:00:07.823Z,20.83
2016-12-03T09:01:18.229Z,20.83
2016-12-03T09:02:28.638Z,20.87
2016-12-03T09:03:39.040Z,20.93
2016-12-03T09:04:49.444Z,20.93
2016-12-03T09:05:59.913Z,21.06
2016-12-03T09:07:10.435Z,21.05
2016-12-03T09:08:20.960Z,21.11
2016-12-03T09:09:31.484Z,21.08
2016-12-03T09:10:42.009Z,21.15
2016-12-03T09:11:52.734Z,21.15
2016-12-03T09:13:03.260Z,21.06
2016-12-03T09:14:13.785Z,21.21
2016-12-03T09:15:24.309Z,21.19
2016-12-03T09:16:34.840Z,21.21
2016-12-03T09:17:45.388Z,21.21
2016-12-03T09:19:10.441Z,21.11
2016-12-03T09:20:20.974Z,21.19
2016-12-03T09:21:31.501Z,21.16
2016-12-03T09:22:42.256Z,21.18
2016-12-03T09:23:52.781Z,21.19
2016-12-03T09:25:03.333Z,21.31
2016-12-03T09:26:13.862Z,21.24
2016-12-03T09:27:24.383Z,21.12
2016-12-03T09:28:35.112Z,21.12
2016-12-03T09:29:45.661Z,21.21
2016-12-03T09:30:56.195Z,21.27
2016-12-03T09:32:06.726Z,21.21
2016-12-03T09:33:17.753Z,21.26
2016-12-03T09:34:28.788Z,21.26
2016-12-03T09:35:39.313Z,21.34
2016-12-03T09:36:49.836Z,21.31
2016-12-03T09:38:00.362Z,21.3
2016-12-03T09:39:10.887Z,21.21
2016-12-03T09:40:21.411Z,21.18
2016-12-03T09:41:31.935Z,21.19
2016-12-03T09:42:42.467Z,21.22
2016-12-03T09:43:52.993Z,21.19
2016-12-03T09:45:03.516Z,21.27
2016-12-03T09:46:14.248Z,21.28
2016-12-03T09:47:24.773Z,21.27
2016-12-03T09:48:35.305Z,21.37
2016-12-03T09:49:45.829Z,21.31
2016-12-03T09:50:56.355Z,21.43
2016-12-03T09:52:21.709Z,21.58
2016-12-03T09:53:32.237Z,21.66
2016-12-03T09:54:42.761Z,21.68
2016-12-03T09:55:53.313Z,21.81
2016-12-03T09:57:03.835Z,21.83
2016-12-03T09:58:14.360Z,21.75
2016-12-03T09:59:24.884Z,21.89
2016-12-03T10:00:35.414Z,21.89
2016-12-03T10:01:46.438Z,21.93
2016-12-03T10:02:57.266Z,21.98
2016-12-03T10:04:22.321Z,22.04
2016-12-03T10:05:47.872Z,22.17
2016-12-03T10:06:58.400Z,22.11
2016-12-03T10:08:09.128Z,22.26
2016-12-03T10:09:19.657Z,22.41
2016-12-03T10:10:30.195Z,22.27
2016-12-03T10:11:40.717Z,22.26
2016-12-03T10:12:51.244Z,22.39
2016-12-03T10:14:01.967Z,22.29
2016-12-03T10:15:12.920Z,22.33
2016-12-03T10:16:23.330Z,22.38
2016-12-03T10:17:33.742Z,22.29
2016-12-03T10:18:44.150Z,22.12
2016-12-03T10:19:54.760Z,22.12
2016-12-03T10:21:05.168Z,22.14
2016-12-03T10:22:15.576Z,22.19
2016-12-03T10:23:25.984Z,22.15
2016-12-03T10:24:36.391Z,22.09
2016-12-03T10:25:47.026Z,22.26
2016-12-03T10:26:57.444Z,22.27
2016-12-03T10:28:07.870Z,22.3
2016-12-03T10:29:18.274Z,22.42
2016-12-03T10:30:28.707Z,22.48
2016-12-03T10:31:39.115Z,22.49
2016-12-03T10:33:04.073Z,22.42
2016-12-03T10:34:14.479Z,22.39
2016-12-03T10:35:24.891Z,22.41
2016-12-03T10:36:35.297Z,22.39
2016-12-03T10:37:45.709Z,22.44
2016-12-03T10:38:56.119Z,22.29
2016-12-03T10:40:06.528Z,22.38
2016-12-03T10:41:16.960Z,22.44
2016-12-03T10:42:27.568Z,22.45
2016-12-03T10:43:37.978Z,22.49
2016-12-03T10:44:48.389Z,22.38
2016-12-03T10:45:58.803Z,22.46
2016-12-03T10:47:09.211Z,22.51
2016-12-03T10:48:19.821Z,22.48
2016-12-03T10:49:30.235Z,22.49
2016-12-03T10:50:40.643Z,22.46
2016-12-03T10:51:51.533Z,22.54
2016-12-03T10:53:01.943Z,22.54
2016-12-03T10:54:12.346Z,22.54
2016-12-03T10:55:23.236Z,22.63
2016-12-03T10:56:33.644Z,22.67
2016-12-03T10:57:44.055Z,22.74
2016-12-03T10:58:54.460Z,22.79
2016-12-03T11:00:05.068Z,22.91
2016-12-03T11:01:15.479Z,22.85
2016-12-03T11:03:50.877Z,22.89
2016-12-03T11:05:01.492Z,22.96
2016-12-03T11:06:11.903Z,22.93
2016-12-03T11:07:22.310Z,23.01
2016-12-03T11:08:32.724Z,23.09
2016-12-03T11:09:43.137Z,23.12
2016-12-03T11:10:53.746Z,23.07
2016-12-03T11:12:18.734Z,23.37
2016-12-03T11:13:29.141Z,23.32
2016-12-03T11:14:39.547Z,23.52
2016-12-03T11:15:50.155Z,23.49
2016-12-03T11:17:00.565Z,23.59
2016-12-03T11:18:10.973Z,23.72
2016-12-03T11:19:21.380Z,23.87
2016-12-03T11:20:31.790Z,23.97
2016-12-03T11:21:42.397Z,24.06
2016-12-03T11:22:52.805Z,24
2016-12-03T11:24:03.215Z,23.93
2016-12-03T11:25:13.620Z,24.11
2016-12-03T11:27:49.187Z,24.18
2016-12-03T11:28:59.595Z,24.27
2016-12-03T11:30:10.004Z,24.31
2016-12-03T11:31:20.414Z,24.55
2016-12-03T11:32:31.022Z,24.56
2016-12-03T11:33:41.433Z,24.59
2016-12-03T11:34:51.797Z,24.51
2016-12-03T11:36:16.683Z,24.67
2016-12-03T11:38:51.887Z,24.64
2016-12-03T11:40:02.212Z,24.55
2016-12-03T11:41:12.537Z,24.63
2016-12-03T11:42:22.853Z,24.55
2016-12-03T11:43:33.172Z,24.59
2016-12-03T11:46:08.378Z,24.83
2016-12-03T11:47:19.170Z,25.01
2016-12-03T11:48:29.686Z,25.14
2016-12-03T11:49:40.015Z,25.31
2016-12-03T11:50:50.336Z,25.39
2016-12-03T11:52:00.660Z,25.44
2016-12-03T11:53:10.978Z,25.54
2016-12-03T11:54:36.064Z,25.63
2016-12-03T11:55:46.384Z,25.82
2016-12-03T11:56:56.700Z,26.09
2016-12-03T11:58:07.030Z,26.24
2016-12-03T11:59:17.350Z,26.13
2016-12-03T12:00:27.669Z,26.09
2016-12-03T12:01:37.985Z,26.09
2016-12-03T12:02:48.804Z,26.23
2016-12-03T12:03:59.126Z,26.5
2016-12-03T12:05:09.443Z,26.59
2016-12-03T12:06:19.793Z,26.66
2016-12-03T12:07:30.127Z,27.02
2016-12-03T12:08:40.919Z,26.97
2016-12-03T12:09:51.238Z,27.01
2016-12-03T12:11:01.556Z,27.12
2016-12-03T12:12:11.880Z,27.3
2016-12-03T12:13:22.201Z,27.46
2016-12-03T12:14:32.520Z,27.49
2016-12-03T12:15:42.837Z,27.68
2016-12-03T12:16:53.165Z,27.78
2016-12-03T12:18:03.484Z,27.8
2016-12-03T12:19:28.379Z,27.5
2016-12-03T12:20:38.697Z,27.35
2016-12-03T12:21:49.215Z,27.45
2016-12-03T12:22:59.538Z,27.55
2016-12-03T12:24:10.335Z,27.58
2016-12-03T12:25:20.653Z,27.58
2016-12-03T12:26:30.977Z,27.53
2016-12-03T12:27:41.970Z,27.49
2016-12-03T12:28:52.292Z,27.48
2016-12-03T12:30:02.611Z,27.3
2016-12-03T12:31:12.931Z,27.48
2016-12-03T12:32:23.248Z,27.53
2016-12-03T12:33:33.575Z,27.58
2016-12-03T12:34:43.895Z,27.58
2016-12-03T12:35:54.217Z,27.63
2016-12-03T12:37:04.561Z,27.65
2016-12-03T12:38:14.880Z,27.48
2016-12-03T12:39:25.405Z,27.46
2016-12-03T12:40:35.724Z,27.33
2016-12-03T12:43:10.949Z,27.34
2016-12-03T12:44:21.273Z,27.42
2016-12-03T12:45:31.790Z,27.53
2016-12-03T12:46:42.113Z,27.38
2016-12-03T12:47:52.437Z,27.3
2016-12-03T12:49:17.335Z,27.27
2016-12-03T12:50:42.426Z,27.3
2016-12-03T12:51:52.751Z,27.35
2016-12-03T12:53:03.080Z,27.58
2016-12-03T12:54:13.397Z,27.55
2016-12-03T12:55:23.721Z,27.48
2016-12-03T12:56:34.041Z,27.61
2016-12-03T12:57:44.360Z,27.88
2016-12-03T12:58:54.678Z,27.93
2016-12-03T13:00:05.003Z,28.08
2016-12-03T13:01:15.332Z,28.24
2016-12-03T13:02:25.651Z,28.15
2016-12-03T13:03:35.969Z,28.32
2016-12-03T13:04:46.288Z,28.45
2016-12-03T13:06:11.186Z,28.48
2016-12-03T13:07:21.712Z,28.65
2016-12-03T13:08:32.088Z,28.72
2016-12-03T13:09:42.527Z,28.82
2016-12-03T13:10:53.003Z,29.05
2016-12-03T13:12:17.990Z,29.18
2016-12-03T13:13:28.432Z,29.39
2016-12-03T13:14:38.869Z,29.39
2016-12-03T13:15:49.306Z,29.33
2016-12-03T13:16:59.950Z,29.33
2016-12-03T13:18:10.390Z,29.42
2016-12-03T13:19:20.835Z,29.42
2016-12-03T13:20:31.272Z,29.44
2016-12-03T13:21:41.747Z,29.52
2016-12-03T13:22:52.390Z,29.62
2016-12-03T13:24:02.833Z,29.52
2016-12-03T13:25:27.819Z,29.7
2016-12-03T13:26:38.257Z,29.88
2016-12-03T13:27:48.897Z,29.91
2016-12-03T13:28:59.340Z,29.66
2016-12-03T13:30:09.783Z,29.58
2016-12-03T13:31:34.774Z,29.6
2016-12-03T13:32:45.214Z,29.63
2016-12-03T13:33:55.853Z,29.81
2016-12-03T13:35:06.291Z,29.95
2016-12-03T13:36:16.734Z,29.84
2016-12-03T13:37:27.176Z,29.74
2016-12-03T13:38:37.815Z,30.15
2016-12-03T13:39:48.260Z,30.29
2016-12-03T13:40:58.707Z,30.36
2016-12-03T13:42:09.145Z,30.44
2016-12-03T13:43:19.587Z,30.46
2016-12-03T13:44:30.024Z,30.42
2016-12-03T13:45:40.466Z,30.32
2016-12-03T13:46:50.910Z,30.44
2016-12-03T13:48:01.349Z,30.38
2016-12-03T13:49:11.788Z,30.44
2016-12-03T13:50:22.485Z,30.75
2016-12-03T13:51:33.024Z,30.82
2016-12-03T13:52:43.556Z,30.93
2016-12-03T13:53:54.091Z,31.07
2016-12-03T13:55:04.623Z,31.16
2016-12-03T13:56:15.361Z,31.16
2016-12-03T13:57:40.422Z,31.22
2016-12-03T13:58:50.956Z,31.32
2016-12-03T14:00:01.492Z,31.47
2016-12-03T14:01:12.520Z,31.42
2016-12-03T14:02:23.054Z,31.45
2016-12-03T14:03:33.593Z,31.59
2016-12-03T14:04:44.132Z,31.64
2016-12-03T14:05:55.170Z,31.56
2016-12-03T14:07:05.711Z,31.76
2016-12-03T14:08:16.248Z,31.67
2016-12-03T14:09:41.310Z,31.57
2016-12-03T14:10:51.845Z,31.31
2016-12-03T14:12:02.378Z,31.32
2016-12-03T14:13:12.919Z,31.64
2016-12-03T14:14:23.455Z,31.67
2016-12-03T14:15:33.987Z,31.9
2016-12-03T14:16:44.521Z,31.87
2016-12-03T14:17:55.254Z,31.65
2016-12-03T14:19:05.733Z,31.19
2016-12-03T14:20:16.152Z,31.34
2016-12-03T14:21:26.570Z,31.62
2016-12-03T14:22:36.982Z,31.78
2016-12-03T14:23:47.603Z,31.47
2016-12-03T14:24:58.019Z,31.69
2016-12-03T14:26:08.433Z,31.57
2016-12-03T14:27:18.845Z,31.45
2016-12-03T14:28:29.261Z,31.19
2016-12-03T14:29:39.688Z,31.27
2016-12-03T14:30:50.618Z,31.4
2016-12-03T14:32:01.033Z,31.09
2016-12-03T14:33:11.450Z,31.2
2016-12-03T14:34:21.864Z,31.23
2016-12-03T14:35:32.479Z,31.27
2016-12-03T14:36:42.896Z,31.37
2016-12-03T14:37:53.314Z,31.18
2016-12-03T14:39:03.729Z,31.22
2016-12-03T14:40:14.159Z,31.32
2016-12-03T14:41:24.770Z,31.13
2016-12-03T14:42:35.181Z,31.07
2016-12-03T14:43:45.596Z,31.07
2016-12-03T14:44:56.049Z,30.93
2016-12-03T14:46:06.466Z,30.72
2016-12-03T14:47:16.884Z,30.86
2016-12-03T14:48:27.300Z,30.79
2016-12-03T14:49:37.716Z,31.1
2016-12-03T14:50:48.135Z,31.15
2016-12-03T14:51:58.554Z,31.34
2016-12-03T14:53:08.969Z,31.16
2016-12-03T14:54:19.383Z,31.31
2016-12-03T14:55:29.796Z,31.23
2016-12-03T14:56:40.210Z,31.2
2016-12-03T14:57:50.623Z,30.96
2016-12-03T14:59:01.241Z,30.86
2016-12-03T15:00:11.680Z,30.83
2016-12-03T15:01:22.098Z,30.78
2016-12-03T15:02:47.064Z,30.81
2016-12-03T15:03:57.485Z,30.93
2016-12-03T15:05:07.909Z,30.94
2016-12-03T15:06:18.321Z,30.86
2016-12-03T15:07:28.741Z,30.93
2016-12-03T15:08:39.152Z,30.82
2016-12-03T15:09:49.568Z,30.9
2016-12-03T15:10:59.983Z,30.86
2016-12-03T15:12:10.395Z,30.68
2016-12-03T15:13:20.811Z,30.63
2016-12-03T15:14:31.223Z,30.59
2016-12-03T15:15:41.840Z,30.64
2016-12-03T15:16:52.262Z,30.64
2016-12-03T15:18:02.682Z,30.64
2016-12-03T15:19:13.102Z,30.73
2016-12-03T15:20:23.461Z,30.96
2016-12-03T15:21:33.985Z,31.09
2016-12-03T15:22:44.808Z,30.67
2016-12-03T15:23:55.129Z,30.4
2016-12-03T15:25:05.457Z,30.19
2016-12-03T15:26:15.785Z,30.18
2016-12-03T15:27:41.158Z,30.16
2016-12-03T15:28:51.538Z,30.11
2016-12-03T15:30:01.990Z,30.23
2016-12-03T15:31:12.440Z,30.25
2016-12-03T15:32:22.882Z,29.95
2016-12-03T15:33:33.523Z,30
2016-12-03T15:34:43.966Z,30.21
2016-12-03T15:35:54.414Z,30.11
2016-12-03T15:37:04.883Z,30.26
2016-12-03T15:38:15.328Z,30.3
2016-12-03T15:39:25.798Z,30.3